Time;durP1;ratioP1;P1;durP2;ratioP2;P2;SDS_P1;SDS_P2;PMS_P1;PMS_P2;Temp;Humidity;BMP_temperature;BMP_pressure;BME280_temperature;BME280_humidity;BME280_pressure;Samples;Min_cycle;Max_cycle;Signal;HPM_P1;HPM_P2
2023/10/26 00:01:23;;;;;;;5.60;1.80;;;;;;;13.38;69.67;99888.27;107539;1255;97832;-63
2023/10/26 00:03:51;;;;;;;3.40;1.70;;;;;;;13.39;69.90;99888.70;107552;1253;98361;-61
2023/10/26 00:06:20;;;;;;;6.00;1.60;;;;;;;13.39;69.91;99886.67;107614;1255;111992;-61
2023/10/26 00:08:49;;;;;;;4.30;2.00;;;;;;;13.38;70.05;99887.36;107550;1251;109463;-61
2023/10/26 00:11:17;;;;;;;7.50;2.20;;;;;;;13.37;70.02;99887.63;107602;1251;105794;-61
2023/10/26 00:13:45;;;;;;;6.40;1.80;;;;;;;13.35;70.30;99885.71;107529;1251;97851;-62
2023/10/26 00:16:14;;;;;;;4.50;1.80;;;;;;;13.29;70.47;99884.23;107631;1253;97712;-63
2023/10/26 00:18:42;;;;;;;7.90;2.30;;;;;;;13.25;70.63;99891.70;107619;1255;111464;-61
2023/10/26 00:21:10;;;;;;;5.20;1.80;;;;;;;13.21;70.78;99904.08;107558;1251;108968;-62
2023/10/26 00:23:39;;;;;;;7.70;1.70;;;;;;;13.20;70.68;99905.46;107599;1256;107430;-63
2023/10/26 00:26:07;;;;;;;7.30;2.20;;;;;;;13.22;70.99;99899.45;107528;1254;97865;-63
2023/10/26 00:28:36;;;;;;;10.80;2.00;;;;;;;13.25;70.93;99891.33;107523;1253;98455;-62
2023/10/26 00:31:04;;;;;;;6.30;1.70;;;;;;;13.28;71.08;99879.43;107567;1252;113965;-61
2023/10/26 00:33:33;;;;;;;3.90;1.40;;;;;;;13.29;71.49;99869.13;107618;1251;109247;-61
2023/10/26 00:36:02;;;;;;;15.70;1.80;;;;;;;13.22;71.96;99868.23;107600;1251;107812;-61
2023/10/26 00:38:30;;;;;;;7.60;1.90;;;;;;;13.16;71.30;99875.27;107542;1257;97983;-62
2023/10/26 00:40:58;;;;;;;4.90;1.80;;;;;;;13.16;71.66;99876.34;107583;1251;97883;-63
2023/10/26 00:43:27;;;;;;;7.50;1.80;;;;;;;13.18;71.61;99873.42;107539;1256;112440;-61
2023/10/26 00:45:55;;;;;;;14.20;2.70;;;;;;;13.17;71.46;99873.41;107598;1251;109253;-63
2023/10/26 00:48:24;;;;;;;2.90;1.80;;;;;;;13.17;71.58;99872.67;107472;1254;107841;-62
2023/10/26 00:50:52;;;;;;;7.40;1.80;;;;;;;13.17;71.68;99876.48;107603;1253;97843;-61
2023/10/26 00:53:21;;;;;;;10.00;2.00;;;;;;;13.18;71.73;99874.05;107585;1254;97711;-62
2023/10/26 00:55:51;;;;;;;5.80;1.90;;;;;;;13.14;71.59;99863.63;107622;1256;112249;-61
2023/10/26 00:58:21;;;;;;;10.30;1.90;;;;;;;13.09;71.50;99862.70;107585;1253;109834;-62
2023/10/26 01:00:50;;;;;;;8.50;1.70;;;;;;;13.05;71.26;99862.65;107616;1251;107952;-62
2023/10/26 01:03:20;;;;;;;9.40;1.90;;;;;;;13.05;71.63;99872.73;107548;1251;97896;-61
2023/10/26 01:05:48;;;;;;;13.80;3.00;;;;;;;13.05;71.69;99873.78;107527;1252;98382;-60
2023/10/26 01:08:17;;;;;;;7.30;2.10;;;;;;;13.07;71.88;99876.83;107607;1253;111483;-61
2023/10/26 01:10:46;;;;;;;10.00;2.50;;;;;;;13.06;72.11;99881.04;107591;1256;110062;-61
2023/10/26 01:13:15;;;;;;;6.50;1.90;;;;;;;13.07;72.34;99874.83;107634;1251;108256;-63
2023/10/26 01:15:43;;;;;;;6.70;1.70;;;;;;;13.09;72.22;99870.98;107610;1251;97822;-60
2023/10/26 01:18:12;;;;;;;11.00;1.90;;;;;;;13.09;72.40;99875.94;107517;1254;97816;-61
2023/10/26 01:20:42;;;;;;;6.30;1.50;;;;;;;13.04;71.95;99883.98;107568;1252;111629;-61
2023/10/26 01:23:10;;;;;;;5.60;1.80;;;;;;;12.99;71.82;99892.80;107556;1254;109965;-62
2023/10/26 01:25:39;;;;;;;8.50;1.90;;;;;;;12.93;72.00;99897.11;107541;1252;107895;-63
2023/10/26 01:28:08;;;;;;;9.60;2.40;;;;;;;12.84;71.77;99898.85;107587;1251;97833;-62
2023/10/26 01:30:40;;;;;;;10.10;1.80;;;;;;;12.79;71.97;99894.67;107624;1256;97834;-61
2023/10/26 01:33:09;;;;;;;8.60;1.70;;;;;;;12.76;72.22;99889.13;107540;1254;111463;-62
2023/10/26 01:35:41;;;;;;;6.00;2.00;;;;;;;12.73;72.20;99883.02;107626;1251;108488;-61
2023/10/26 01:38:10;;;;;;;12.40;2.00;;;;;;;12.71;72.18;99874.98;107610;1256;107989;-62
2023/10/26 01:40:39;;;;;;;4.30;2.00;;;;;;;12.69;72.37;99871.94;107573;1251;97831;-62
2023/10/26 01:43:08;;;;;;;9.70;1.70;;;;;;;12.64;72.40;99878.87;107604;1251;98355;-61
2023/10/26 01:45:36;;;;;;;4.50;1.60;;;;;;;12.63;72.58;99885.84;107415;1253;111945;-61
2023/10/26 01:48:05;;;;;;;8.00;2.20;;;;;;;12.59;72.47;99882.68;107544;1251;109269;-61
2023/10/26 01:50:34;;;;;;;5.30;1.90;;;;;;;12.59;72.72;99874.87;107565;1254;108757;-62
2023/10/26 01:53:03;;;;;;;4.30;1.70;;;;;;;12.59;72.70;99872.96;107549;1254;97946;-62
2023/10/26 01:55:31;;;;;;;4.10;2.20;;;;;;;12.59;72.81;99862.55;107362;1257;98061;-62
2023/10/26 01:58:00;;;;;;;11.30;2.10;;;;;;;12.58;72.91;99864.30;107496;1256;111116;-63
2023/10/26 02:00:28;;;;;;;7.80;1.80;;;;;;;12.51;72.95;99871.73;107480;1254;109464;-62
2023/10/26 02:02:56;;;;;;;4.40;1.30;;;;;;;12.44;72.98;99880.03;107555;1251;107933;-61
2023/10/26 02:05:25;;;;;;;7.70;1.80;;;;;;;12.45;73.25;99884.05;107520;1257;98426;-62
2023/10/26 02:07:54;;;;;;;10.60;1.60;;;;;;;12.47;73.32;99890.85;107616;1251;97884;-62
2023/10/26 02:10:29;;;;;;;5.50;1.90;;;;;;;12.51;73.34;99897.30;107569;1251;112924;-62
2023/10/26 02:12:57;;;;;;;13.80;2.30;;;;;;;12.53;73.45;99895.20;107533;1251;110048;-61
2023/10/26 02:15:25;;;;;;;6.60;1.80;;;;;;;12.57;73.37;99891.77;107458;1256;109281;-61
2023/10/26 02:17:53;;;;;;;11.20;2.70;;;;;;;12.58;73.35;99901.88;107504;1256;97965;-61
2023/10/26 02:20:22;;;;;;;9.10;1.90;;;;;;;12.55;73.08;99911.38;107498;1259;97817;-61
2023/10/26 02:22:50;;;;;;;8.70;2.50;;;;;;;12.52;73.04;99910.31;107570;1254;111657;-62
2023/10/26 02:25:20;;;;;;;7.20;2.50;;;;;;;12.50;72.91;99908.91;107621;1256;109170;-62
2023/10/26 02:27:48;;;;;;;12.80;2.70;;;;;;;12.49;73.01;99905.09;107424;1259;107989;-62
2023/10/26 02:30:17;;;;;;;6.70;2.00;;;;;;;12.49;73.37;99902.84;107477;1252;97765;-63
2023/10/26 02:32:45;;;;;;;6.00;1.70;;;;;;;12.50;73.45;99901.52;107539;1252;97727;-61
2023/10/26 02:35:15;;;;;;;8.40;1.70;;;;;;;12.50;73.42;99906.35;107457;1254;111015;-62
2023/10/26 02:37:43;;;;;;;4.20;2.10;;;;;;;12.48;73.32;99904.08;107587;1254;108778;-61
2023/10/26 02:40:11;;;;;;;3.90;1.90;;;;;;;12.36;72.66;99903.92;107534;1254;108566;-61
2023/10/26 02:42:40;;;;;;;9.40;2.20;;;;;;;12.26;72.53;99896.46;107604;1256;97847;-63
2023/10/26 02:45:09;;;;;;;5.50;1.80;;;;;;;12.18;72.72;99898.53;107612;1251;98348;-62
2023/10/26 02:47:38;;;;;;;9.80;3.10;;;;;;;12.13;72.91;99896.88;107628;1251;111655;-62
2023/10/26 02:50:08;;;;;;;9.80;1.90;;;;;;;12.09;72.83;99899.90;107610;1257;108914;-63
2023/10/26 02:52:37;;;;;;;9.10;2.30;;;;;;;12.04;72.88;99900.00;107618;1255;107124;-63
2023/10/26 02:55:07;;;;;;;3.10;2.00;;;;;;;12.00;72.94;99900.66;107566;1256;97604;-62
2023/10/26 02:57:35;;;;;;;19.00;2.90;;;;;;;11.96;72.98;99912.79;107639;1251;97887;-61
2023/10/26 03:00:05;;;;;;;9.60;2.20;;;;;;;11.92;72.90;99915.73;107518;1251;111949;-62
2023/10/26 03:02:35;;;;;;;8.00;2.10;;;;;;;11.85;73.10;99917.16;107648;1251;108991;-62
2023/10/26 03:05:04;;;;;;;7.80;2.60;;;;;;;11.77;73.16;99911.89;107579;1251;108477;-61
2023/10/26 03:07:33;;;;;;;8.00;3.10;;;;;;;11.70;73.17;99906.72;107627;1253;97842;-62
2023/10/26 03:10:02;;;;;;;5.70;2.20;;;;;;;11.63;73.12;99905.47;107554;1255;98351;-62
2023/10/26 03:12:30;;;;;;;8.60;2.90;;;;;;;11.57;73.10;99901.61;107594;1251;110368;-61
2023/10/26 03:14:58;;;;;;;9.00;3.60;;;;;;;11.54;73.37;99893.71;107601;1251;109123;-62
2023/10/26 03:17:26;;;;;;;18.00;5.20;;;;;;;11.52;73.55;99894.11;107585;1251;108476;-62
2023/10/26 03:19:55;;;;;;;11.60;3.70;;;;;;;11.50;73.92;99892.48;107532;1251;97844;-63
2023/10/26 03:22:23;;;;;;;6.80;2.90;;;;;;;11.49;74.13;99893.70;107418;1256;98403;-61
2023/10/26 03:24:52;;;;;;;5.90;2.80;;;;;;;11.48;74.34;99887.16;107506;1254;111476;-62
2023/10/26 03:27:20;;;;;;;7.90;2.90;;;;;;;11.47;74.46;99884.14;107637;1251;110059;-62
2023/10/26 03:29:49;;;;;;;7.10;2.50;;;;;;;11.47;74.57;99880.06;107618;1251;107530;-63
2023/10/26 03:32:18;;;;;;;17.30;3.50;;;;;;;11.48;74.56;99879.25;107511;1251;98526;-63
2023/10/26 03:34:48;;;;;;;12.80;3.20;;;;;;;11.46;74.66;99874.06;107471;1254;97863;-64
2023/10/26 03:37:16;;;;;;;10.00;3.30;;;;;;;11.45;74.61;99873.29;107532;1254;111851;-63
2023/10/26 03:39:45;;;;;;;10.10;2.50;;;;;;;11.43;74.66;99864.80;107548;1254;109330;-62
2023/10/26 03:42:13;;;;;;;13.40;2.90;;;;;;;11.42;74.72;99864.23;107585;1251;107537;-61
2023/10/26 03:44:42;;;;;;;10.10;2.70;;;;;;;11.42;74.69;99859.79;107560;1251;97820;-62
2023/10/26 03:47:10;;;;;;;9.90;2.40;;;;;;;11.43;75.13;99859.84;107596;1251;98714;-62
2023/10/26 03:49:39;;;;;;;15.30;2.40;;;;;;;11.44;75.19;99856.34;107586;1251;112696;-61
2023/10/26 03:52:07;;;;;;;4.50;2.30;;;;;;;11.46;75.15;99853.27;107573;1251;108863;-63
2023/10/26 03:54:36;;;;;;;10.50;2.30;;;;;;;11.43;75.07;99856.75;107576;1256;108831;-61
2023/10/26 03:57:06;;;;;;;11.10;3.10;;;;;;;11.41;75.01;99857.33;107552;1251;97934;-61
2023/10/26 03:59:34;;;;;;;7.10;2.40;;;;;;;11.41;75.16;99862.20;107497;1254;97715;-63
2023/10/26 04:02:03;;;;;;;12.60;2.80;;;;;;;11.40;75.25;99858.13;107580;1254;111984;-60
2023/10/26 04:04:31;;;;;;;15.40;2.70;;;;;;;11.40;75.40;99861.77;107605;1251;109312;-63
2023/10/26 04:06:59;;;;;;;10.60;2.80;;;;;;;11.40;75.31;99860.89;107567;1251;108323;-62
2023/10/26 04:09:28;;;;;;;15.20;4.60;;;;;;;11.38;75.06;99850.48;107561;1251;97876;-62
2023/10/26 04:11:56;;;;;;;12.60;3.20;;;;;;;11.38;75.20;99841.70;107581;1253;97736;-62
2023/10/26 04:14:25;;;;;;;17.30;3.10;;;;;;;11.38;75.20;99839.75;107590;1256;110867;-62
2023/10/26 04:16:53;;;;;;;19.20;3.50;;;;;;;11.38;75.29;99842.28;107619;1254;108660;-63
2023/10/26 04:19:22;;;;;;;10.00;2.40;;;;;;;11.37;75.03;99840.35;107541;1251;108669;-62
2023/10/26 04:21:50;;;;;;;13.80;3.00;;;;;;;11.36;75.15;99832.56;107588;1251;97861;-62
2023/10/26 04:24:18;;;;;;;26.20;8.50;;;;;;;11.37;75.11;99840.52;107579;1251;97998;-61
2023/10/26 04:26:46;;;;;;;26.70;4.70;;;;;;;11.34;75.15;99844.95;107587;1251;111174;-63
2023/10/26 04:29:15;;;;;;;19.30;3.10;;;;;;;11.29;74.73;99845.27;107534;1251;108259;-62
2023/10/26 04:31:43;;;;;;;15.50;3.10;;;;;;;11.26;75.08;99845.39;107605;1251;107671;-62
2023/10/26 04:34:11;;;;;;;7.20;3.00;;;;;;;11.30;75.25;99851.57;107407;1254;97823;-61
2023/10/26 04:36:39;;;;;;;14.00;2.70;;;;;;;11.31;75.27;99850.70;107609;1251;97920;-62
2023/10/26 04:39:09;;;;;;;9.00;2.90;;;;;;;11.32;75.11;99847.98;107600;1256;111508;-62
2023/10/26 04:41:38;;;;;;;8.40;2.70;;;;;;;11.31;75.06;99846.22;107472;1251;108438;-61
2023/10/26 04:44:06;;;;;;;24.70;3.90;;;;;;;11.30;75.01;99843.08;107426;1251;106997;-61
2023/10/26 04:46:35;;;;;;;22.60;3.90;;;;;;;11.30;75.07;99846.68;107550;1251;97868;-62
2023/10/26 04:49:03;;;;;;;8.50;3.60;;;;;;;11.30;75.10;99852.27;107507;1254;97851;-63
2023/10/26 04:51:32;;;;;;;21.80;3.80;;;;;;;11.29;75.03;99848.91;107351;1254;110560;-63
2023/10/26 04:54:00;;;;;;;28.30;4.00;;;;;;;11.29;75.10;99848.23;107478;1251;109225;-61
2023/10/26 04:56:28;;;;;;;20.60;3.80;;;;;;;11.30;75.10;99845.77;107479;1251;107081;-62
2023/10/26 04:58:56;;;;;;;30.20;4.00;;;;;;;11.31;75.03;99842.27;107447;1251;97851;-64
2023/10/26 05:01:25;;;;;;;20.80;3.60;;;;;;;11.32;75.04;99840.53;107488;1251;97856;-62
2023/10/26 05:03:53;;;;;;;20.70;4.00;;;;;;;11.34;74.88;99838.77;107479;1254;111578;-63
2023/10/26 05:06:22;;;;;;;28.30;4.30;;;;;;;11.33;74.77;99841.15;107477;1254;110421;-62
2023/10/26 05:08:50;;;;;;;36.20;4.80;;;;;;;11.34;74.50;99840.38;107488;1256;107417;-63
2023/10/26 05:11:19;;;;;;;30.80;4.00;;;;;;;11.35;74.30;99831.92;107464;1251;97809;-62
2023/10/26 05:13:48;;;;;;;17.60;4.00;;;;;;;11.38;74.15;99839.89;107529;1254;97819;-61
2023/10/26 05:16:17;;;;;;;18.90;6.90;;;;;;;11.40;74.15;99849.08;107463;1251;111334;-63
2023/10/26 05:18:45;;;;;;;18.80;3.30;;;;;;;11.40;74.17;99849.52;107514;1251;109963;-62
2023/10/26 05:21:13;;;;;;;16.10;3.40;;;;;;;11.42;74.31;99855.41;107495;1256;107242;-62
2023/10/26 05:23:43;;;;;;;20.50;3.40;;;;;;;11.46;74.27;99859.55;107525;1251;97858;-62
2023/10/26 05:26:11;;;;;;;14.10;3.40;;;;;;;11.49;74.13;99862.99;107472;1254;97812;-62
2023/10/26 05:28:40;;;;;;;8.30;3.20;;;;;;;11.52;74.14;99863.34;107461;1254;112147;-62
2023/10/26 05:31:08;;;;;;;14.60;4.10;;;;;;;11.55;74.15;99868.58;107419;1251;109150;-62
2023/10/26 05:33:36;;;;;;;9.90;3.40;;;;;;;11.60;74.22;99874.77;107474;1251;108261;-62
2023/10/26 05:36:05;;;;;;;19.10;3.80;;;;;;;11.63;74.34;99874.61;107544;1251;97707;-61
2023/10/26 05:38:33;;;;;;;9.70;3.40;;;;;;;11.65;74.31;99873.44;107604;1251;98398;-62
2023/10/26 05:41:02;;;;;;;8.10;3.50;;;;;;;11.68;74.50;99869.27;107519;1251;112350;-62
2023/10/26 05:43:31;;;;;;;9.40;3.40;;;;;;;11.69;74.59;99871.59;107534;1251;109937;-64
2023/10/26 05:46:03;;;;;;;6.30;3.70;;;;;;;11.69;74.65;99875.54;107481;1256;108198;-62
2023/10/26 05:48:33;;;;;;;9.50;3.90;;;;;;;11.70;74.85;99878.86;107522;1253;97819;-62
2023/10/26 05:51:04;;;;;;;12.50;5.20;;;;;;;11.74;75.04;99879.48;107590;1254;98345;-62
2023/10/26 05:53:34;;;;;;;10.00;4.00;;;;;;;11.83;75.20;99884.98;107439;1251;111392;-62
2023/10/26 05:56:04;;;;;;;12.00;4.10;;;;;;;11.91;75.41;99880.95;107503;1254;109253;-62
2023/10/26 05:58:32;;;;;;;11.60;3.80;;;;;;;11.97;75.51;99879.36;107382;1251;108319;-63
2023/10/26 06:01:00;;;;;;;9.80;3.70;;;;;;;12.04;75.56;99884.80;107520;1251;97957;-62
2023/10/26 06:03:29;;;;;;;8.20;3.60;;;;;;;12.11;75.78;99885.85;107460;1256;97886;-62
2023/10/26 06:06:01;;;;;;;15.20;4.60;;;;;;;12.18;75.85;99885.24;107468;1251;112542;-62
2023/10/26 06:08:29;;;;;;;13.30;3.90;;;;;;;12.25;75.81;99881.73;107307;1254;108448;-63
2023/10/26 06:10:58;;;;;;;6.40;3.50;;;;;;;12.33;75.88;99880.15;107467;1254;107237;-63
2023/10/26 06:13:26;;;;;;;15.50;4.60;;;;;;;12.42;75.87;99884.19;107466;1257;97973;-63
2023/10/26 06:15:55;;;;;;;17.00;5.20;;;;;;;12.53;76.03;99880.16;107441;1251;97710;-62
2023/10/26 06:18:23;;;;;;;14.70;4.80;;;;;;;12.61;75.96;99876.71;107531;1254;111292;-63
2023/10/26 06:21:02;;;;;;;9.20;4.50;;;;;;;12.74;76.17;99879.28;107535;1254;109151;-62
2023/10/26 06:23:30;;;;;;;11.30;4.80;;;;;;;12.91;76.37;99881.48;107558;1253;108742;-62
2023/10/26 06:25:59;;;;;;;11.70;4.50;;;;;;;13.08;76.57;99882.98;107505;1256;97912;-63
2023/10/26 06:28:28;;;;;;;13.80;4.70;;;;;;;13.24;76.34;99879.38;107412;1251;97848;-62
2023/10/26 06:31:09;;;;;;;8.00;4.40;;;;;;;13.43;76.35;99889.35;107486;1249;110879;-61
2023/10/26 06:33:38;;;;;;;12.10;4.20;;;;;;;13.60;76.29;99889.23;107447;1253;110396;-61
2023/10/26 06:36:09;;;;;;;7.70;4.90;;;;;;;13.71;75.90;99886.00;107606;1251;106323;-62
2023/10/26 06:38:39;;;;;;;12.60;5.20;;;;;;;13.82;75.58;99883.02;107554;1251;97813;-62
2023/10/26 06:41:08;;;;;;;12.50;4.30;;;;;;;13.92;75.40;99880.10;107652;1251;97717;-63
2023/10/26 06:43:38;;;;;;;12.40;5.10;;;;;;;14.00;75.17;99877.05;107546;1251;111748;-62
2023/10/26 06:46:06;;;;;;;10.80;5.10;;;;;;;14.08;75.09;99874.23;107588;1255;108812;-62
2023/10/26 06:48:35;;;;;;;14.40;6.10;;;;;;;14.14;74.63;99876.52;107625;1251;108312;-62
2023/10/26 06:51:06;;;;;;;10.80;6.40;;;;;;;14.19;74.44;99871.95;107658;1251;97835;-62
2023/10/26 06:53:34;;;;;;;16.00;6.20;;;;;;;14.26;74.37;99870.23;107458;1253;97737;-62
2023/10/26 06:56:10;;;;;;;18.00;6.90;;;;;;;14.30;74.12;99864.64;107588;1251;111266;-60
2023/10/26 06:58:39;;;;;;;16.20;6.80;;;;;;;14.40;74.25;99861.29;107603;1251;109094;-62
2023/10/26 07:01:08;;;;;;;13.70;6.90;;;;;;;14.50;74.00;99855.37;107595;1253;108135;-63
2023/10/26 07:03:50;;;;;;;13.60;6.10;;;;;;;14.59;73.91;99857.44;107451;1251;97823;-63
2023/10/26 07:06:19;;;;;;;19.50;6.70;;;;;;;14.66;73.64;99860.56;107558;1253;97915;-62
2023/10/26 07:08:47;;;;;;;15.90;6.30;;;;;;;14.75;73.32;99860.83;107495;1253;110793;-61
2023/10/26 07:11:23;;;;;;;18.80;6.90;;;;;;;14.81;73.13;99860.45;107493;1251;109185;-62
2023/10/26 07:13:51;;;;;;;15.30;5.80;;;;;;;14.87;73.12;99856.67;107460;1251;107962;-63
2023/10/26 07:16:20;;;;;;;7.80;5.20;;;;;;;14.90;72.71;99856.13;107557;1253;97851;-62
2023/10/26 07:18:48;;;;;;;13.90;5.50;;;;;;;14.92;72.68;99860.88;107571;1251;97730;-62
2023/10/26 07:21:16;;;;;;;9.90;5.00;;;;;;;14.94;72.39;99858.35;107627;1253;112030;-62
2023/10/26 07:23:46;;;;;;;16.50;6.20;;;;;;;14.97;72.55;99853.39;107598;1251;108721;-62
2023/10/26 07:26:18;;;;;;;13.30;5.70;;;;;;;15.02;72.43;99850.30;107571;1251;107518;-62
2023/10/26 07:28:46;;;;;;;8.80;5.10;;;;;;;15.07;72.34;99847.65;107513;1257;97908;-62
2023/10/26 07:31:21;;;;;;;11.90;5.40;;;;;;;15.14;72.35;99840.19;107557;1251;97921;-61
2023/10/26 07:33:50;;;;;;;10.90;4.60;;;;;;;15.21;72.27;99839.52;107630;1251;112207;-61
2023/10/26 07:36:18;;;;;;;10.60;4.90;;;;;;;15.25;72.24;99835.36;107513;1251;108859;-62
2023/10/26 07:38:47;;;;;;;13.70;5.10;;;;;;;15.30;72.09;99836.14;107552;1253;108192;-62
2023/10/26 07:41:35;;;;;;;10.80;4.70;;;;;;;15.36;71.93;99837.42;107546;1253;97922;-62
2023/10/26 07:44:24;;;;;;;8.80;5.10;;;;;;;15.42;71.72;99835.69;107642;1253;97832;-62
2023/10/26 07:46:52;;;;;;;14.60;5.40;;;;;;;15.48;71.79;99829.84;107653;1253;111279;-61
2023/10/26 07:49:21;;;;;;;12.90;5.40;;;;;;;15.58;71.74;99833.33;107630;1251;108983;-62
2023/10/26 07:51:50;;;;;;;12.70;6.30;;;;;;;15.67;71.61;99833.43;107583;1254;108298;-62
2023/10/26 07:54:18;;;;;;;10.50;5.00;;;;;;;15.77;71.49;99839.20;107549;1253;98216;-62
2023/10/26 07:56:46;;;;;;;14.00;6.20;;;;;;;15.87;71.37;99838.20;107426;1251;97717;-61
2023/10/26 07:59:15;;;;;;;18.40;6.00;;;;;;;15.98;71.30;99835.80;107567;1253;112109;-63
2023/10/26 08:01:43;;;;;;;10.10;4.60;;;;;;;16.09;71.16;99837.68;107608;1253;109030;-61
2023/10/26 08:04:12;;;;;;;14.10;4.70;;;;;;;16.16;70.65;99835.29;107624;1251;106306;-62
2023/10/26 08:06:40;;;;;;;13.10;5.00;;;;;;;16.22;70.66;99832.19;107552;1252;97924;-62
2023/10/26 08:09:08;;;;;;;13.50;4.70;;;;;;;16.30;70.47;99833.13;107629;1251;97699;-62
2023/10/26 08:11:37;;;;;;;18.80;5.80;;;;;;;16.40;70.27;99827.30;107609;1253;112388;-62
2023/10/26 08:14:05;;;;;;;20.00;5.60;;;;;;;16.51;70.17;99817.63;107537;1253;108697;-62
2023/10/26 08:16:56;;;;;;;10.90;4.50;;;;;;;16.65;70.03;99820.02;107550;1251;108484;-63
2023/10/26 08:19:25;;;;;;;10.60;5.00;;;;;;;16.78;69.69;99824.27;107617;1253;97822;-63
2023/10/26 08:21:54;;;;;;;15.90;4.60;;;;;;;16.96;69.26;99824.71;107647;1253;97812;-61
2023/10/26 08:24:23;;;;;;;13.10;4.30;;;;;;;17.13;68.75;99827.73;107579;1250;111906;-62
2023/10/26 08:26:51;;;;;;;12.80;5.00;;;;;;;17.27;68.15;99832.34;107598;1253;109572;-63
2023/10/26 08:29:20;;;;;;;7.90;4.30;;;;;;;17.35;67.85;99829.37;107554;1251;108611;-61
2023/10/26 08:31:56;;;;;;;15.00;5.20;;;;;;;17.41;67.42;99829.88;107625;1251;97851;-62
2023/10/26 08:34:27;;;;;;;12.10;4.90;;;;;;;17.46;67.17;99826.89;107625;1253;98469;-62
2023/10/26 08:36:56;;;;;;;10.40;4.40;;;;;;;17.54;67.05;99827.91;107637;1253;112054;-61
2023/10/26 08:39:27;;;;;;;15.70;5.10;;;;;;;17.63;66.89;99820.79;107630;1252;109322;-62
2023/10/26 08:41:58;;;;;;;10.70;4.90;;;;;;;17.70;66.69;99819.19;107584;1253;108841;-62
2023/10/26 08:44:29;;;;;;;14.00;5.30;;;;;;;17.74;66.64;99827.33;107567;1251;97893;-61
2023/10/26 08:47:02;;;;;;;8.20;4.60;;;;;;;17.76;66.49;99829.01;107686;1251;97851;-62
2023/10/26 08:49:32;;;;;;;10.40;4.80;;;;;;;17.75;66.24;99825.94;107675;1251;111111;-61
2023/10/26 08:52:00;;;;;;;9.90;5.30;;;;;;;17.70;66.20;99824.81;107667;1251;108749;-62
2023/10/26 08:54:29;;;;;;;16.30;4.90;;;;;;;17.65;66.28;99827.10;107578;1251;107422;-62
2023/10/26 08:57:10;;;;;;;18.20;5.20;;;;;;;17.61;65.86;99823.28;107637;1253;97845;-63
2023/10/26 08:59:38;;;;;;;12.80;5.10;;;;;;;17.58;65.90;99820.09;107654;1253;98464;-63
2023/10/26 09:02:07;;;;;;;14.70;5.30;;;;;;;17.56;66.12;99821.42;107639;1251;111266;-63
2023/10/26 09:04:35;;;;;;;10.30;5.10;;;;;;;17.56;66.10;99817.58;107600;1252;109709;-64
2023/10/26 09:07:03;;;;;;;11.60;5.10;;;;;;;17.55;65.94;99814.31;107609;1253;107028;-63
2023/10/26 09:09:44;;;;;;;13.10;5.30;;;;;;;17.57;66.04;99815.15;107615;1251;97692;-63
2023/10/26 09:12:14;;;;;;;12.90;4.70;;;;;;;17.62;66.13;99808.64;107569;1251;97828;-63
2023/10/26 09:14:57;;;;;;;17.90;4.20;;;;;;;17.67;65.98;99807.60;107625;1250;111271;-62
2023/10/26 09:17:28;;;;;;;15.80;4.00;;;;;;;17.71;65.96;99812.67;107591;1251;108735;-62
2023/10/26 09:19:57;;;;;;;5.00;3.40;;;;;;;17.71;65.84;99813.20;107601;1253;107492;-62
2023/10/26 09:22:44;;;;;;;9.30;3.20;;;;;;;17.68;65.50;99811.08;107564;1252;97850;-61
2023/10/26 09:25:14;;;;;;;8.30;3.30;;;;;;;17.63;65.62;99811.53;107580;1251;97921;-64
2023/10/26 09:27:44;;;;;;;11.20;3.00;;;;;;;17.65;65.50;99810.90;107542;1251;110474;-62
2023/10/26 09:30:28;;;;;;;8.90;2.70;;;;;;;17.65;65.53;99799.31;107576;1253;110381;-63
2023/10/26 09:32:57;;;;;;;16.40;4.30;;;;;;;17.71;65.84;99795.17;107615;1251;107453;-61
2023/10/26 09:35:35;;;;;;;22.50;5.80;;;;;;;17.78;65.91;99792.05;107608;1254;97833;-61
2023/10/26 09:38:04;;;;;;;7.60;3.30;;;;;;;17.89;65.67;99790.02;107626;1252;98448;-62
2023/10/26 09:40:32;;;;;;;10.00;2.90;;;;;;;17.97;65.45;99787.23;107674;1254;111428;-62
2023/10/26 09:43:01;;;;;;;12.00;3.20;;;;;;;18.08;64.71;99782.48;107573;1250;109254;-63
2023/10/26 09:45:30;;;;;;;28.40;3.90;;;;;;;18.15;64.47;99780.07;107591;1251;108688;-63
2023/10/26 09:48:00;;;;;;;12.20;3.50;;;;;;;18.21;64.40;99776.89;107652;1252;97836;-62
2023/10/26 09:50:29;;;;;;;16.90;3.30;;;;;;;18.26;63.91;99770.23;107607;1251;98457;-61
2023/10/26 09:52:59;;;;;;;11.50;3.20;;;;;;;18.32;64.13;99767.11;107699;1251;111218;-62
2023/10/26 09:55:28;;;;;;;12.10;3.50;;;;;;;18.36;63.85;99767.19;107614;1254;108806;-62
2023/10/26 09:58:04;;;;;;;10.80;3.40;;;;;;;18.39;63.63;99765.05;107660;1253;107062;-61
2023/10/26 10:00:34;;;;;;;17.20;3.40;;;;;;;18.40;63.22;99760.29;107426;1253;97759;-62
2023/10/26 10:03:14;;;;;;;10.60;3.20;;;;;;;18.43;63.18;99762.11;107695;1251;97713;-59
2023/10/26 10:05:45;;;;;;;13.40;3.30;;;;;;;18.45;63.23;99763.58;107692;1251;112195;-59
2023/10/26 10:08:13;;;;;;;20.30;4.20;;;;;;;18.48;63.11;99762.86;107491;1251;109372;-60
2023/10/26 10:11:14;;;;;;;19.60;3.80;;;;;;;18.54;62.99;99762.67;107045;1251;615916;-62
2023/10/26 10:13:43;;;;;;;11.60;3.10;;;;;;;18.66;63.09;99756.56;107686;1253;97836;-61
2023/10/26 10:16:34;;;;;;;12.30;2.30;;;;;;;18.83;63.11;99750.55;107617;1252;97720;-61
2023/10/26 10:19:21;;;;;;;10.20;3.30;;;;;;;18.98;62.67;99750.95;107525;1251;111497;-62
2023/10/26 10:21:51;;;;;;;15.70;4.60;;;;;;;19.08;62.38;99752.66;107593;1251;107540;-62
2023/10/26 10:24:38;;;;;;;6.40;2.60;;;;;;;19.19;62.13;99746.27;107650;1251;108797;-61
2023/10/26 10:27:11;;;;;;;17.30;3.80;;;;;;;19.33;61.88;99746.67;107577;1253;97838;-62
2023/10/26 10:29:40;;;;;;;7.50;2.10;;;;;;;19.56;61.25;99750.69;107468;1251;98685;-63
2023/10/26 10:32:13;;;;;;;5.70;3.50;;;;;;;19.77;60.49;99742.98;107634;1251;111884;-61
2023/10/26 10:34:45;;;;;;;8.30;3.30;;;;;;;20.48;60.13;99738.42;107615;1254;108235;-62
2023/10/26 10:37:17;;;;;;;11.30;3.10;;;;;;;20.69;58.78;99740.39;107502;1252;108815;-62
2023/10/26 10:40:12;;;;;;;8.10;2.40;;;;;;;20.64;58.27;99738.17;107585;1253;97823;-62
2023/10/26 10:42:48;;;;;;;4.80;2.00;;;;;;;20.60;58.12;99731.12;107597;1253;97783;-63
2023/10/26 10:45:18;;;;;;;5.90;2.10;;;;;;;20.57;57.75;99727.91;107623;1251;110869;-63
2023/10/26 10:47:49;;;;;;;10.10;2.70;;;;;;;20.50;57.68;99723.88;107634;1253;110144;-62
2023/10/26 10:50:20;;;;;;;13.20;2.90;;;;;;;20.40;57.10;99717.84;107628;1253;108604;-62
2023/10/26 10:52:55;;;;;;;5.60;2.40;;;;;;;20.36;57.23;99715.15;107636;1253;97926;-62
2023/10/26 10:55:29;;;;;;;5.40;2.50;;;;;;;20.30;56.60;99717.50;107470;1252;97818;-60
2023/10/26 10:58:03;;;;;;;6.60;2.50;;;;;;;20.33;56.42;99712.63;107590;1251;111420;-63
2023/10/26 11:00:48;;;;;;;;;;;;;;;20.57;56.51;99710.43;107577;1251;109605;-62
2023/10/26 11:03:24;;;;;;;5.90;2.90;;;;;;;20.86;55.84;99713.17;107428;1253;107572;-62
2023/10/26 11:05:53;;;;;;;9.00;2.90;;;;;;;21.17;55.77;99709.05;107553;1253;97835;-62
2023/10/26 11:08:21;;;;;;;10.60;2.60;;;;;;;21.67;55.44;99699.69;107591;1254;98032;-63
2023/10/26 11:10:50;;;;;;;11.50;2.60;;;;;;;21.82;54.99;99694.90;107527;1251;111985;-61
2023/10/26 11:13:19;;;;;;;5.50;2.50;;;;;;;21.98;54.70;99690.58;107529;1251;108635;-62
2023/10/26 11:15:48;;;;;;;7.00;2.60;;;;;;;22.18;53.88;99683.45;107517;1251;107793;-63
2023/10/26 11:18:17;;;;;;;7.90;2.70;;;;;;;22.54;53.30;99680.52;107433;1252;97939;-62
2023/10/26 11:20:46;;;;;;;10.70;3.30;;;;;;;22.78;52.64;99676.36;107609;1253;98380;-63
2023/10/26 11:23:16;;;;;;;8.90;2.30;;;;;;;23.08;52.27;99673.63;107490;1255;111440;-61
2023/10/26 11:25:45;;;;;;;10.90;3.30;;;;;;;23.47;51.47;99662.30;107456;1253;108944;-62
2023/10/26 11:28:13;;;;;;;7.50;2.60;;;;;;;23.58;50.80;99660.34;107418;1253;109651;-62
2023/10/26 11:30:51;;;;;;;10.80;2.30;;;;;;;23.58;50.02;99664.42;107452;1254;97826;-63